createdAt,value
2018-12-25T00:05:27.326Z,17.47
2018-12-25T00:07:58.053Z,16.77
2018-12-25T00:10:28.672Z,20.13
2018-12-25T00:12:59.321Z,16.10
2018-12-25T00:15:30.045Z,16.87
2018-12-25T00:18:00.784Z,19.40
2018-12-25T00:20:33.329Z,17.60
2018-12-25T00:23:03.817Z,19.97
2018-12-25T00:25:34.521Z,16.73
2018-12-25T00:28:05.189Z,19.80
2018-12-25T00:30:35.839Z,20.00
2018-12-25T00:33:06.592Z,24.43
2018-12-25T00:35:37.334Z,19.83
2018-12-25T00:38:08.058Z,16.93
2018-12-25T00:40:38.688Z,16.33
2018-12-25T00:43:09.256Z,17.90
2018-12-25T00:45:39.866Z,20.67
2018-12-25T00:48:10.489Z,15.97
2018-12-25T00:50:41.214Z,19.03
2018-12-25T00:53:11.851Z,17.83
2018-12-25T00:55:42.576Z,20.10
2018-12-25T00:58:13.288Z,19.77
2018-12-25T01:00:43.937Z,19.77
2018-12-25T01:03:14.508Z,14.83
2018-12-25T01:05:45.237Z,17.67
2018-12-25T01:08:15.881Z,18.60
2018-12-25T01:10:46.556Z,16.13
2018-12-25T01:13:17.199Z,15.97
2018-12-25T01:15:47.925Z,15.90
2018-12-25T01:18:18.646Z,15.60
2018-12-25T01:20:50.233Z,16.87
2018-12-25T01:23:20.947Z,17.50
2018-12-25T01:25:51.682Z,16.33
2018-12-25T01:28:22.394Z,18.03
2018-12-25T01:30:53.142Z,17.83
2018-12-25T01:33:23.859Z,15.07
2018-12-25T01:35:54.630Z,15.10
2018-12-25T01:38:25.262Z,15.43
2018-12-25T01:40:56.001Z,21.00
2018-12-25T01:43:26.638Z,19.73
2018-12-25T01:45:57.301Z,20.03
2018-12-25T01:48:27.937Z,15.63
2018-12-25T01:50:58.598Z,19.87
2018-12-25T01:53:29.321Z,15.60
2018-12-25T01:55:59.905Z,15.47
2018-12-25T01:58:31.041Z,17.20
2018-12-25T02:01:01.697Z,17.80
2018-12-25T02:03:32.414Z,18.93
2018-12-25T02:06:03.081Z,18.43
2018-12-25T02:08:33.801Z,16.13
2018-12-25T02:11:04.475Z,16.70
2018-12-25T02:13:35.176Z,16.50
2018-12-25T02:16:05.911Z,13.47
2018-12-25T02:18:36.651Z,16.10
2018-12-25T02:21:07.377Z,15.77
2018-12-25T02:23:38.355Z,22.67
2018-12-25T02:26:09.100Z,23.53
2018-12-25T02:28:39.844Z,20.40
2018-12-25T02:31:10.497Z,19.80
2018-12-25T02:33:41.223Z,16.17
2018-12-25T02:36:11.982Z,21.10
2018-12-25T02:38:42.713Z,17.80
2018-12-25T02:41:13.459Z,19.83
2018-12-25T02:43:44.102Z,17.47
2018-12-25T02:46:14.865Z,15.33
2018-12-25T02:48:45.596Z,16.87
2018-12-25T02:51:16.337Z,19.63
2018-12-25T02:53:46.977Z,23.20
2018-12-25T02:56:17.654Z,15.90
2018-12-25T02:58:48.374Z,17.37
2018-12-25T03:01:19.113Z,21.40
2018-12-25T03:03:49.827Z,18.63
2018-12-25T03:06:20.567Z,16.77
2018-12-25T03:08:51.265Z,18.60
2018-12-25T03:11:21.922Z,19.13
2018-12-25T03:13:52.637Z,18.90
2018-12-25T03:16:23.282Z,16.50
2018-12-25T03:18:53.904Z,19.50
2018-12-25T03:21:24.622Z,16.40
2018-12-25T03:23:55.341Z,14.73
2018-12-25T03:26:26.010Z,16.47
2018-12-25T03:28:56.658Z,14.00
2018-12-25T03:31:27.394Z,18.33
2018-12-25T03:33:58.109Z,17.77
2018-12-25T03:36:28.806Z,16.20
2018-12-25T03:38:59.444Z,13.87
2018-12-25T03:41:30.216Z,17.30
2018-12-25T03:44:00.874Z,18.50
2018-12-25T03:46:31.618Z,18.57
2018-12-25T03:49:02.367Z,25.00
2018-12-25T03:51:33.000Z,14.07
2018-12-25T03:54:03.747Z,17.20
2018-12-25T03:56:34.475Z,18.87
2018-12-25T03:59:05.307Z,16.60
2018-12-25T04:01:36.012Z,20.13
2018-12-25T04:04:06.750Z,15.90
2018-12-25T04:06:40.401Z,18.73
2018-12-25T04:09:11.134Z,16.17
2018-12-25T04:11:41.779Z,16.73
2018-12-25T04:14:12.520Z,17.37
2018-12-25T04:16:43.096Z,16.97
2018-12-25T04:19:13.849Z,17.27
2018-12-25T04:21:44.560Z,18.40
2018-12-25T04:24:15.231Z,16.97
2018-12-25T04:26:45.887Z,18.33
2018-12-25T04:29:16.556Z,20.57
2018-12-25T04:31:47.206Z,18.53
2018-12-25T04:34:17.887Z,18.70
2018-12-25T04:36:48.553Z,17.17
2018-12-25T04:39:19.230Z,22.93
2018-12-25T04:41:49.930Z,23.20
2018-12-25T04:44:20.677Z,20.70
2018-12-25T04:46:51.390Z,21.30
2018-12-25T04:49:22.050Z,22.23
2018-12-25T04:51:52.797Z,20.13
2018-12-25T04:54:23.533Z,20.47
2018-12-25T04:56:54.233Z,19.63
2018-12-25T04:59:24.893Z,18.17
2018-12-25T05:01:55.609Z,18.23
2018-12-25T05:04:26.357Z,20.17
2018-12-25T05:06:57.004Z,16.33
2018-12-25T05:09:27.654Z,15.00
2018-12-25T05:11:59.330Z,20.30
2018-12-25T05:14:30.077Z,17.20
2018-12-25T05:17:00.720Z,17.93
2018-12-25T05:19:31.457Z,17.20
2018-12-25T05:22:02.177Z,17.07
2018-12-25T05:24:32.893Z,21.90
2018-12-25T05:27:03.537Z,18.30
2018-12-25T05:29:34.190Z,18.80
2018-12-25T05:32:04.902Z,20.90
2018-12-25T05:34:35.485Z,22.10
2018-12-25T05:37:06.145Z,22.30
2018-12-25T05:39:36.806Z,20.10
2018-12-25T05:42:07.516Z,23.57
2018-12-25T05:44:38.245Z,21.20
2018-12-25T05:47:08.951Z,20.57
2018-12-25T05:49:39.597Z,20.10
2018-12-25T05:52:10.148Z,19.10
2018-12-25T05:54:40.801Z,21.97
2018-12-25T05:57:11.506Z,24.00
2018-12-25T05:59:42.231Z,21.53
2018-12-25T06:02:12.933Z,21.27
2018-12-25T06:04:43.577Z,26.60
2018-12-25T06:07:14.217Z,22.77
2018-12-25T06:09:44.950Z,25.50
2018-12-25T06:12:15.573Z,26.40
2018-12-25T06:14:46.237Z,26.83
2018-12-25T06:17:16.880Z,28.40
2018-12-25T06:19:47.620Z,31.40
2018-12-25T06:22:18.337Z,26.60
2018-12-25T06:24:49.000Z,33.40
2018-12-25T06:27:19.638Z,28.20
2018-12-25T06:29:50.370Z,26.13
2018-12-25T06:32:21.084Z,29.00
2018-12-25T06:34:51.754Z,24.17
2018-12-25T06:37:22.472Z,29.10
2018-12-25T06:39:53.130Z,23.97
2018-12-25T06:42:23.838Z,29.10
2018-12-25T06:44:54.489Z,34.80
2018-12-25T06:47:25.202Z,31.13
2018-12-25T06:49:55.926Z,23.97
2018-12-25T06:52:26.548Z,25.60
2018-12-25T06:54:57.211Z,32.53
2018-12-25T06:57:27.925Z,36.37
2018-12-25T06:59:58.658Z,28.63
2018-12-25T07:02:29.298Z,25.87
2018-12-25T07:05:00.017Z,29.50
2018-12-25T07:07:30.645Z,28.23
2018-12-25T07:10:01.378Z,29.13
2018-12-25T07:12:32.077Z,31.63
2018-12-25T07:15:02.758Z,43.47
2018-12-25T07:17:37.233Z,35.13
2018-12-25T07:20:07.890Z,31.17
2018-12-25T07:22:38.610Z,29.50
2018-12-25T07:25:09.353Z,29.27
2018-12-25T07:27:39.985Z,24.80
2018-12-25T07:30:10.649Z,25.77
2018-12-25T07:32:49.535Z,26.97
2018-12-25T07:41:19.425Z,28.83
2018-12-25T07:43:50.145Z,33.77
2018-12-25T07:46:20.805Z,82.47
2018-12-25T13:30:59.794Z,22.57
2018-12-25T13:33:30.536Z,28.80
2018-12-25T13:36:01.245Z,23.30
2018-12-25T13:38:31.834Z,26.13
2018-12-25T13:41:02.534Z,27.20
2018-12-25T13:43:33.359Z,28.00
2018-12-25T13:46:04.065Z,24.97
2018-12-25T13:48:34.709Z,25.33
2018-12-25T13:51:05.253Z,27.13
2018-12-25T13:53:35.885Z,23.63
2018-12-25T13:56:06.519Z,26.00
2018-12-25T13:58:37.149Z,24.90
2018-12-25T14:01:07.778Z,23.97
2018-12-25T14:03:38.414Z,27.77
2018-12-25T14:06:09.040Z,25.40
2018-12-25T14:08:39.692Z,25.17
2018-12-25T14:11:10.375Z,27.27
2018-12-25T14:13:41.089Z,22.93
2018-12-25T14:16:11.713Z,23.20
2018-12-25T14:18:42.395Z,29.23
2018-12-25T14:21:13.022Z,22.73
2018-12-25T14:23:43.701Z,25.30
2018-12-25T14:26:14.417Z,24.30
2018-12-25T14:28:45.173Z,24.43
2018-12-25T14:31:15.801Z,24.10
2018-12-25T14:33:46.537Z,28.17
2018-12-25T14:36:17.254Z,22.70
2018-12-25T14:38:48.017Z,25.63
2018-12-25T14:41:18.715Z,26.07
2018-12-25T14:43:49.477Z,23.03
2018-12-25T14:46:20.105Z,20.40
2018-12-25T14:48:50.830Z,23.23
2018-12-25T14:51:21.450Z,24.40
2018-12-25T14:53:52.177Z,24.37
2018-12-25T14:56:22.913Z,18.70
2018-12-25T14:58:53.688Z,20.27
2018-12-25T15:01:24.393Z,24.43
2018-12-25T15:03:55.089Z,18.13
2018-12-25T15:06:25.721Z,22.50
2018-12-25T15:08:56.374Z,23.97
2018-12-25T15:11:27.077Z,25.20
2018-12-25T15:13:57.814Z,27.93
2018-12-25T15:16:28.542Z,23.97
2018-12-25T15:18:59.257Z,26.00
2018-12-25T15:21:29.989Z,23.67
2018-12-25T15:24:00.712Z,24.20
2018-12-25T15:26:31.457Z,23.97
2018-12-25T15:29:02.171Z,25.30
2018-12-25T15:31:32.897Z,27.60
2018-12-25T15:34:03.530Z,26.30
2018-12-25T15:36:34.281Z,24.60
2018-12-25T15:39:08.365Z,24.67
2018-12-25T15:41:39.034Z,28.80
2018-12-25T15:44:09.743Z,29.90
2018-12-25T15:46:40.462Z,24.37
2018-12-25T15:49:11.156Z,29.10
2018-12-25T15:51:43.897Z,27.70
2018-12-25T15:54:14.518Z,26.00
2018-12-25T15:56:45.270Z,28.87
2018-12-25T15:59:15.909Z,25.97
2018-12-25T16:01:47.146Z,30.80
2018-12-25T16:04:22.683Z,32.17
2018-12-25T16:06:54.703Z,32.40
2018-12-25T16:09:25.694Z,29.23
2018-12-25T16:11:56.626Z,27.37
2018-12-25T16:14:27.611Z,34.43
2018-12-25T16:17:11.210Z,29.63
2018-12-25T17:43:16.845Z,39.80
2018-12-25T17:48:28.706Z,40.23
2018-12-25T17:54:28.435Z,38.13
2018-12-25T17:56:59.986Z,36.57
2018-12-25T17:59:30.153Z,43.07
2018-12-25T18:02:01.298Z,35.67
2018-12-25T18:04:32.916Z,32.73
2018-12-25T18:07:04.502Z,37.10
2018-12-25T18:09:35.418Z,37.03
2018-12-25T18:12:06.342Z,38.13
2018-12-25T18:14:38.126Z,37.50
2018-12-25T18:17:08.767Z,39.17
2018-12-25T18:19:39.443Z,34.60
2018-12-25T18:22:10.784Z,40.77
2018-12-25T18:24:44.913Z,37.43
2018-12-25T18:27:15.810Z,41.70
2018-12-25T18:29:46.870Z,41.23
2018-12-25T18:32:17.766Z,38.33
2018-12-25T18:34:49.872Z,40.00
2018-12-25T18:37:20.753Z,41.67
2018-12-25T18:39:56.401Z,40.43
2018-12-25T18:42:27.447Z,37.97
2018-12-25T18:44:59.624Z,35.93
2018-12-25T18:47:30.428Z,44.47
2018-12-25T18:50:00.677Z,42.27
2018-12-25T18:52:37.125Z,41.97
2018-12-25T18:55:14.244Z,38.93
2018-12-25T18:57:47.510Z,52.73
2018-12-25T19:00:18.054Z,58.07
2018-12-25T19:02:48.927Z,44.13
2018-12-25T19:06:10.246Z,40.57
2018-12-25T19:08:41.319Z,46.57
2018-12-25T19:11:14.196Z,41.13
2018-12-25T19:13:45.733Z,41.97
2018-12-25T19:16:16.566Z,49.70
2018-12-25T19:18:47.530Z,42.10
2018-12-25T19:21:19.536Z,41.60
2018-12-25T19:23:58.241Z,44.87
2018-12-25T19:26:29.386Z,38.80
2018-12-25T19:29:00.317Z,45.17
2018-12-25T19:31:31.478Z,42.77
2018-12-25T19:34:03.651Z,41.93
2018-12-25T19:36:34.642Z,45.53
2018-12-25T19:39:08.905Z,38.20
2018-12-25T19:41:39.707Z,41.80
2018-12-25T19:44:18.638Z,41.60
2018-12-25T19:46:49.632Z,46.10
2018-12-25T19:49:22.711Z,44.63
2018-12-25T19:51:53.776Z,42.07
2018-12-25T19:54:24.589Z,42.17
2018-12-25T19:56:55.373Z,36.93
2018-12-25T19:59:26.057Z,40.97
2018-12-25T20:01:56.782Z,37.87
2018-12-25T20:05:06.654Z,40.90
2018-12-25T20:08:10.402Z,34.40
2018-12-25T20:11:15.731Z,34.80
2018-12-25T20:14:24.405Z,39.70
2018-12-25T20:17:18.698Z,37.57
2018-12-25T20:20:39.600Z,41.33
2018-12-25T20:23:53.329Z,49.53
2018-12-25T20:27:00.143Z,42.50
2018-12-25T20:30:30.361Z,38.10
2018-12-25T20:34:00.194Z,42.13
2018-12-25T20:37:36.873Z,42.50
2018-12-25T20:40:40.857Z,39.70
2018-12-25T20:44:08.193Z,41.10
2018-12-25T20:47:16.436Z,38.93
2018-12-25T20:50:31.170Z,41.13
2018-12-25T20:53:28.674Z,40.40
2018-12-25T20:56:29.837Z,38.93
2018-12-25T20:59:31.690Z,45.23
2018-12-25T21:02:49.334Z,43.10
2018-12-25T21:05:48.214Z,40.70
2018-12-25T21:09:06.529Z,41.53
2018-12-25T21:12:25.574Z,39.53
2018-12-25T21:15:38.164Z,38.47
2018-12-25T21:18:46.181Z,45.87
2018-12-25T21:22:03.816Z,45.40
2018-12-25T21:25:17.669Z,48.20
2018-12-25T21:27:51.966Z,44.93
2018-12-25T21:30:24.300Z,48.17
2018-12-25T21:32:55.327Z,47.60
2018-12-25T21:35:26.778Z,40.57
2018-12-25T21:37:58.869Z,43.53
2018-12-25T21:40:29.884Z,43.90
2018-12-25T21:43:03.570Z,40.17
2018-12-25T21:45:34.494Z,44.10
2018-12-25T21:48:05.459Z,41.30
2018-12-25T21:50:36.223Z,37.20
2018-12-25T21:53:07.201Z,40.80
2018-12-25T21:55:37.580Z,44.07
2018-12-25T21:58:09.949Z,45.47
2018-12-25T22:00:41.188Z,41.43
2018-12-25T22:03:31.085Z,45.70
2018-12-25T22:06:02.741Z,38.07
2018-12-25T22:08:33.676Z,40.53
2018-12-25T22:11:04.430Z,35.80
2018-12-25T22:13:36.131Z,39.87
2018-12-25T22:16:06.955Z,38.33
2018-12-25T22:18:39.922Z,45.60
2018-12-25T22:21:10.889Z,46.63
2018-12-25T22:23:42.785Z,47.37
2018-12-25T22:26:15.885Z,45.17
2018-12-25T22:28:47.209Z,42.20
2018-12-25T22:31:18.077Z,41.73
2018-12-25T22:33:48.810Z,39.07
2018-12-25T22:36:19.470Z,39.60
2018-12-25T22:38:50.229Z,45.27
2018-12-25T22:41:21.821Z,45.03
2018-12-25T22:43:52.527Z,47.10
2018-12-25T22:46:23.271Z,40.03
2018-12-25T22:48:54.038Z,38.30
2018-12-25T22:51:24.781Z,40.23
2018-12-25T22:53:55.509Z,39.90
2018-12-25T22:56:26.279Z,38.37
2018-12-25T22:58:57.110Z,38.97
2018-12-25T23:01:27.757Z,38.40
2018-12-25T23:03:57.901Z,33.47
2018-12-25T23:06:28.209Z,41.07
2018-12-25T23:08:58.810Z,40.73
2018-12-25T23:11:29.574Z,43.10
2018-12-25T23:14:00.358Z,50.33
2018-12-25T23:16:30.597Z,39.50
2018-12-25T23:19:01.334Z,40.70
2018-12-25T23:21:31.810Z,40.17
2018-12-25T23:24:02.594Z,41.53
2018-12-25T23:26:34.386Z,43.47
2018-12-25T23:29:05.139Z,38.33
2018-12-25T23:31:35.845Z,36.73
2018-12-25T23:34:06.587Z,43.40
2018-12-25T23:36:37.377Z,42.73
2018-12-25T23:39:08.585Z,35.40
2018-12-25T23:41:39.346Z,38.70
2018-12-25T23:44:10.196Z,39.20
2018-12-25T23:46:41.026Z,33.33
2018-12-25T23:49:11.860Z,35.20
2018-12-25T23:51:42.610Z,39.87
2018-12-25T23:54:13.437Z,41.07
2018-12-25T23:56:44.264Z,42.47
2018-12-25T23:59:15.181Z,37.43
